sensor_id;sensor_type;location;lat;lon;timestamp;P1;durP1;ratioP1;P2;durP2;ratioP2
19038;SDS011;9652;49.014;12.052;2023-09-30T00:00:12;17.93;;;7.30;;
19038;SDS011;9652;49.014;12.052;2023-09-30T00:02:39;16.17;;;7.00;;
19038;SDS011;9652;49.014;12.052;2023-09-30T00:05:07;16.93;;;6.90;;
19038;SDS011;9652;49.014;12.052;2023-09-30T00:07:39;17.03;;;6.93;;
19038;SDS011;9652;49.014;12.052;2023-09-30T00:10:06;16.33;;;6.60;;
19038;SDS011;9652;49.014;12.052;2023-09-30T00:12:35;13.50;;;6.00;;
19038;SDS011;9652;49.014;12.052;2023-09-30T00:15:02;15.40;;;6.63;;
19038;SDS011;9652;49.014;12.052;2023-09-30T00:17:30;15.43;;;6.57;;
19038;SDS011;9652;49.014;12.052;2023-09-30T00:19:57;11.53;;;5.47;;
19038;SDS011;9652;49.014;12.052;2023-09-30T00:22:25;16.87;;;6.40;;
19038;SDS011;9652;49.014;12.052;2023-09-30T00:24:53;13.50;;;5.77;;
19038;SDS011;9652;49.014;12.052;2023-09-30T00:27:20;13.83;;;6.20;;
19038;SDS011;9652;49.014;12.052;2023-09-30T00:29:48;14.20;;;6.30;;
19038;SDS011;9652;49.014;12.052;2023-09-30T00:32:15;12.50;;;5.13;;
19038;SDS011;9652;49.014;12.052;2023-09-30T00:34:42;11.37;;;5.13;;
19038;SDS011;9652;49.014;12.052;2023-09-30T00:37:10;9.60;;;5.17;;
19038;SDS011;9652;49.014;12.052;2023-09-30T00:39:37;15.10;;;5.50;;
19038;SDS011;9652;49.014;12.052;2023-09-30T00:42:05;9.90;;;4.60;;
19038;SDS011;9652;49.014;12.052;2023-09-30T00:44:32;13.87;;;5.27;;
19038;SDS011;9652;49.014;12.052;2023-09-30T00:46:59;12.73;;;4.87;;
19038;SDS011;9652;49.014;12.052;2023-09-30T00:49:28;12.67;;;5.03;;
19038;SDS011;9652;49.014;12.052;2023-09-30T00:51:56;13.57;;;5.23;;
19038;SDS011;9652;49.014;12.052;2023-09-30T00:54:24;14.67;;;4.60;;
19038;SDS011;9652;49.014;12.052;2023-09-30T00:56:53;12.20;;;4.70;;
19038;SDS011;9652;49.014;12.052;2023-09-30T00:59:24;11.43;;;5.30;;
19038;SDS011;9652;49.014;12.052;2023-09-30T01:01:52;11.23;;;4.90;;
19038;SDS011;9652;49.014;12.052;2023-09-30T01:04:24;12.93;;;5.07;;
19038;SDS011;9652;49.014;12.052;2023-09-30T01:06:53;11.47;;;4.60;;
19038;SDS011;9652;49.014;12.052;2023-09-30T01:09:22;10.77;;;4.90;;
19038;SDS011;9652;49.014;12.052;2023-09-30T01:11:51;13.13;;;4.83;;
19038;SDS011;9652;49.014;12.052;2023-09-30T01:14:26;12.00;;;5.27;;
19038;SDS011;9652;49.014;12.052;2023-09-30T01:16:54;12.57;;;4.90;;
19038;SDS011;9652;49.014;12.052;2023-09-30T01:19:23;11.07;;;4.97;;
19038;SDS011;9652;49.014;12.052;2023-09-30T01:21:53;12.07;;;5.53;;
19038;SDS011;9652;49.014;12.052;2023-09-30T01:24:24;11.33;;;5.47;;
19038;SDS011;9652;49.014;12.052;2023-09-30T01:26:51;10.83;;;4.83;;
19038;SDS011;9652;49.014;12.052;2023-09-30T01:29:19;10.20;;;4.47;;
19038;SDS011;9652;49.014;12.052;2023-09-30T01:31:47;12.83;;;4.97;;
19038;SDS011;9652;49.014;12.052;2023-09-30T01:34:15;11.33;;;4.70;;
19038;SDS011;9652;49.014;12.052;2023-09-30T01:36:42;15.37;;;5.50;;
19038;SDS011;9652;49.014;12.052;2023-09-30T01:39:12;11.50;;;5.03;;
19038;SDS011;9652;49.014;12.052;2023-09-30T01:41:39;12.57;;;5.20;;
19038;SDS011;9652;49.014;12.052;2023-09-30T01:44:07;15.00;;;5.77;;
19038;SDS011;9652;49.014;12.052;2023-09-30T01:46:35;11.23;;;4.60;;
19038;SDS011;9652;49.014;12.052;2023-09-30T01:49:03;11.97;;;5.00;;
19038;SDS011;9652;49.014;12.052;2023-09-30T01:51:30;14.37;;;5.20;;
19038;SDS011;9652;49.014;12.052;2023-09-30T01:53:57;15.00;;;5.17;;
19038;SDS011;9652;49.014;12.052;2023-09-30T01:56:26;9.30;;;4.43;;
19038;SDS011;9652;49.014;12.052;2023-09-30T01:58:53;11.63;;;5.03;;
19038;SDS011;9652;49.014;12.052;2023-09-30T02:01:20;12.33;;;5.10;;
19038;SDS011;9652;49.014;12.052;2023-09-30T02:03:49;9.10;;;4.43;;
19038;SDS011;9652;49.014;12.052;2023-09-30T02:06:16;10.93;;;5.37;;
19038;SDS011;9652;49.014;12.052;2023-09-30T02:08:43;13.47;;;6.00;;
19038;SDS011;9652;49.014;12.052;2023-09-30T02:11:11;10.70;;;4.97;;
19038;SDS011;9652;49.014;12.052;2023-09-30T02:13:40;11.57;;;5.10;;
19038;SDS011;9652;49.014;12.052;2023-09-30T02:16:10;11.17;;;4.33;;
19038;SDS011;9652;49.014;12.052;2023-09-30T02:18:38;11.27;;;4.57;;
19038;SDS011;9652;49.014;12.052;2023-09-30T02:21:06;10.47;;;4.80;;
19038;SDS011;9652;49.014;12.052;2023-09-30T02:23:34;9.77;;;4.37;;
19038;SDS011;9652;49.014;12.052;2023-09-30T02:26:01;13.10;;;5.53;;
19038;SDS011;9652;49.014;12.052;2023-09-30T02:28:29;11.33;;;4.87;;
19038;SDS011;9652;49.014;12.052;2023-09-30T02:30:58;9.67;;;4.43;;
19038;SDS011;9652;49.014;12.052;2023-09-30T02:33:25;12.87;;;5.17;;
19038;SDS011;9652;49.014;12.052;2023-09-30T02:35:53;12.77;;;5.47;;
19038;SDS011;9652;49.014;12.052;2023-09-30T02:38:20;9.77;;;4.57;;
19038;SDS011;9652;49.014;12.052;2023-09-30T02:40:48;10.33;;;4.17;;
19038;SDS011;9652;49.014;12.052;2023-09-30T02:43:16;8.00;;;4.43;;
19038;SDS011;9652;49.014;12.052;2023-09-30T02:45:44;9.67;;;4.00;;
19038;SDS011;9652;49.014;12.052;2023-09-30T02:48:12;9.20;;;4.13;;
19038;SDS011;9652;49.014;12.052;2023-09-30T02:50:41;10.37;;;4.50;;
19038;SDS011;9652;49.014;12.052;2023-09-30T02:53:10;11.53;;;4.67;;
19038;SDS011;9652;49.014;12.052;2023-09-30T02:55:38;7.80;;;3.57;;
19038;SDS011;9652;49.014;12.052;2023-09-30T02:58:05;11.60;;;4.70;;
19038;SDS011;9652;49.014;12.052;2023-09-30T03:00:34;11.80;;;4.27;;
19038;SDS011;9652;49.014;12.052;2023-09-30T03:03:03;9.23;;;4.40;;
19038;SDS011;9652;49.014;12.052;2023-09-30T03:05:32;11.77;;;4.47;;
19038;SDS011;9652;49.014;12.052;2023-09-30T03:07:59;12.00;;;4.10;;
19038;SDS011;9652;49.014;12.052;2023-09-30T03:10:27;10.87;;;4.83;;
19038;SDS011;9652;49.014;12.052;2023-09-30T03:12:54;12.30;;;5.27;;
19038;SDS011;9652;49.014;12.052;2023-09-30T03:15:21;9.40;;;4.17;;
19038;SDS011;9652;49.014;12.052;2023-09-30T03:17:49;11.10;;;4.73;;
19038;SDS011;9652;49.014;12.052;2023-09-30T03:20:16;13.77;;;5.07;;
19038;SDS011;9652;49.014;12.052;2023-09-30T03:22:46;9.63;;;4.50;;
19038;SDS011;9652;49.014;12.052;2023-09-30T03:25:15;11.50;;;4.57;;
19038;SDS011;9652;49.014;12.052;2023-09-30T03:27:44;10.27;;;4.53;;
19038;SDS011;9652;49.014;12.052;2023-09-30T03:30:12;10.47;;;4.43;;
19038;SDS011;9652;49.014;12.052;2023-09-30T03:32:40;10.87;;;4.13;;
19038;SDS011;9652;49.014;12.052;2023-09-30T03:35:08;10.47;;;4.63;;
19038;SDS011;9652;49.014;12.052;2023-09-30T03:37:40;9.00;;;4.43;;
19038;SDS011;9652;49.014;12.052;2023-09-30T03:40:09;12.37;;;5.23;;
19038;SDS011;9652;49.014;12.052;2023-09-30T03:42:43;11.80;;;5.07;;
19038;SDS011;9652;49.014;12.052;2023-09-30T03:45:14;11.93;;;5.03;;
19038;SDS011;9652;49.014;12.052;2023-09-30T03:47:45;10.47;;;4.57;;
19038;SDS011;9652;49.014;12.052;2023-09-30T03:50:13;11.60;;;5.13;;
19038;SDS011;9652;49.014;12.052;2023-09-30T03:52:40;9.17;;;4.60;;
19038;SDS011;9652;49.014;12.052;2023-09-30T03:55:10;10.33;;;5.30;;
19038;SDS011;9652;49.014;12.052;2023-09-30T03:57:38;11.53;;;5.37;;
19038;SDS011;9652;49.014;12.052;2023-09-30T04:00:06;15.03;;;6.00;;
19038;SDS011;9652;49.014;12.052;2023-09-30T04:02:40;11.50;;;5.03;;
19038;SDS011;9652;49.014;12.052;2023-09-30T04:05:08;13.30;;;5.43;;
19038;SDS011;9652;49.014;12.052;2023-09-30T04:07:37;12.00;;;5.33;;
19038;SDS011;9652;49.014;12.052;2023-09-30T04:10:05;14.63;;;6.40;;
19038;SDS011;9652;49.014;12.052;2023-09-30T04:12:33;13.87;;;5.97;;
19038;SDS011;9652;49.014;12.052;2023-09-30T04:15:01;13.30;;;5.53;;
19038;SDS011;9652;49.014;12.052;2023-09-30T04:17:29;12.87;;;6.00;;
19038;SDS011;9652;49.014;12.052;2023-09-30T04:19:57;14.33;;;5.63;;
19038;SDS011;9652;49.014;12.052;2023-09-30T04:22:25;15.20;;;5.87;;
19038;SDS011;9652;49.014;12.052;2023-09-30T04:24:53;13.60;;;5.63;;
19038;SDS011;9652;49.014;12.052;2023-09-30T04:27:20;15.17;;;5.73;;
19038;SDS011;9652;49.014;12.052;2023-09-30T04:29:49;14.00;;;5.50;;
19038;SDS011;9652;49.014;12.052;2023-09-30T04:32:16;12.40;;;5.30;;
19038;SDS011;9652;49.014;12.052;2023-09-30T04:34:43;12.17;;;4.87;;
19038;SDS011;9652;49.014;12.052;2023-09-30T04:37:12;11.60;;;5.30;;
19038;SDS011;9652;49.014;12.052;2023-09-30T04:39:39;13.17;;;5.63;;
19038;SDS011;9652;49.014;12.052;2023-09-30T04:42:06;13.10;;;5.40;;
19038;SDS011;9652;49.014;12.052;2023-09-30T04:44:36;12.57;;;5.23;;
19038;SDS011;9652;49.014;12.052;2023-09-30T04:47:05;11.57;;;5.40;;
19038;SDS011;9652;49.014;12.052;2023-09-30T04:49:32;11.00;;;5.00;;
19038;SDS011;9652;49.014;12.052;2023-09-30T04:52:00;10.70;;;4.93;;
19038;SDS011;9652;49.014;12.052;2023-09-30T04:54:27;13.43;;;5.37;;
19038;SDS011;9652;49.014;12.052;2023-09-30T04:56:54;12.37;;;5.40;;
19038;SDS011;9652;49.014;12.052;2023-09-30T04:59:21;12.60;;;5.07;;
19038;SDS011;9652;49.014;12.052;2023-09-30T05:01:50;10.93;;;5.13;;
19038;SDS011;9652;49.014;12.052;2023-09-30T05:04:20;14.90;;;5.80;;
19038;SDS011;9652;49.014;12.052;2023-09-30T05:06:49;12.73;;;5.13;;
19038;SDS011;9652;49.014;12.052;2023-09-30T05:09:16;11.60;;;4.83;;
19038;SDS011;9652;49.014;12.052;2023-09-30T05:11:43;12.47;;;5.10;;
19038;SDS011;9652;49.014;12.052;2023-09-30T05:14:10;13.00;;;5.20;;
19038;SDS011;9652;49.014;12.052;2023-09-30T05:16:38;11.50;;;4.80;;
19038;SDS011;9652;49.014;12.052;2023-09-30T05:19:06;12.70;;;5.10;;
19038;SDS011;9652;49.014;12.052;2023-09-30T05:21:34;10.77;;;5.43;;
19038;SDS011;9652;49.014;12.052;2023-09-30T05:24:02;12.23;;;5.13;;
19038;SDS011;9652;49.014;12.052;2023-09-30T05:26:30;12.13;;;5.37;;
19038;SDS011;9652;49.014;12.052;2023-09-30T05:28:58;12.63;;;5.27;;
19038;SDS011;9652;49.014;12.052;2023-09-30T05:31:25;14.43;;;5.00;;
19038;SDS011;9652;49.014;12.052;2023-09-30T05:33:52;12.57;;;4.83;;
19038;SDS011;9652;49.014;12.052;2023-09-30T05:36:20;11.20;;;5.43;;
19038;SDS011;9652;49.014;12.052;2023-09-30T05:38:48;12.53;;;5.70;;
19038;SDS011;9652;49.014;12.052;2023-09-30T05:41:16;10.90;;;5.30;;
19038;SDS011;9652;49.014;12.052;2023-09-30T05:43:45;12.40;;;4.63;;
19038;SDS011;9652;49.014;12.052;2023-09-30T05:46:13;10.60;;;5.07;;
19038;SDS011;9652;49.014;12.052;2023-09-30T05:48:41;12.40;;;5.07;;
19038;SDS011;9652;49.014;12.052;2023-09-30T05:51:08;14.13;;;5.67;;
19038;SDS011;9652;49.014;12.052;2023-09-30T05:53:39;9.93;;;5.43;;
19038;SDS011;9652;49.014;12.052;2023-09-30T05:56:08;11.13;;;5.20;;
19038;SDS011;9652;49.014;12.052;2023-09-30T05:58:36;16.63;;;5.20;;
19038;SDS011;9652;49.014;12.052;2023-09-30T06:01:07;12.97;;;5.40;;
19038;SDS011;9652;49.014;12.052;2023-09-30T06:03:36;15.67;;;5.53;;
19038;SDS011;9652;49.014;12.052;2023-09-30T06:06:09;15.50;;;4.70;;
19038;SDS011;9652;49.014;12.052;2023-09-30T06:08:39;15.70;;;5.13;;
19038;SDS011;9652;49.014;12.052;2023-09-30T06:11:15;14.07;;;5.67;;
19038;SDS011;9652;49.014;12.052;2023-09-30T06:13:47;19.50;;;4.80;;
19038;SDS011;9652;49.014;12.052;2023-09-30T06:16:15;12.10;;;4.57;;
19038;SDS011;9652;49.014;12.052;2023-09-30T06:18:43;11.37;;;5.10;;
19038;SDS011;9652;49.014;12.052;2023-09-30T06:21:10;12.90;;;5.63;;
19038;SDS011;9652;49.014;12.052;2023-09-30T06:23:37;11.37;;;4.43;;
19038;SDS011;9652;49.014;12.052;2023-09-30T06:26:05;12.43;;;4.50;;
19038;SDS011;9652;49.014;12.052;2023-09-30T06:28:34;13.90;;;4.60;;
19038;SDS011;9652;49.014;12.052;2023-09-30T06:31:06;9.20;;;4.07;;
19038;SDS011;9652;49.014;12.052;2023-09-30T06:33:34;10.80;;;4.07;;
19038;SDS011;9652;49.014;12.052;2023-09-30T06:36:07;8.53;;;4.43;;
19038;SDS011;9652;49.014;12.052;2023-09-30T06:38:36;8.70;;;3.73;;
19038;SDS011;9652;49.014;12.052;2023-09-30T06:41:04;9.27;;;3.90;;
19038;SDS011;9652;49.014;12.052;2023-09-30T06:43:32;11.97;;;4.40;;
19038;SDS011;9652;49.014;12.052;2023-09-30T06:46:05;8.80;;;4.10;;
19038;SDS011;9652;49.014;12.052;2023-09-30T06:48:35;10.20;;;4.07;;
19038;SDS011;9652;49.014;12.052;2023-09-30T06:51:03;14.67;;;5.67;;
19038;SDS011;9652;49.014;12.052;2023-09-30T06:53:30;10.43;;;4.60;;
19038;SDS011;9652;49.014;12.052;2023-09-30T06:55:58;7.87;;;4.00;;
19038;SDS011;9652;49.014;12.052;2023-09-30T06:58:27;9.30;;;3.57;;
19038;SDS011;9652;49.014;12.052;2023-09-30T07:00:58;8.83;;;3.87;;
19038;SDS011;9652;49.014;12.052;2023-09-30T07:03:29;8.10;;;3.70;;
19038;SDS011;9652;49.014;12.052;2023-09-30T07:06:01;10.20;;;3.97;;
19038;SDS011;9652;49.014;12.052;2023-09-30T07:08:29;9.37;;;3.80;;
19038;SDS011;9652;49.014;12.052;2023-09-30T07:10:57;7.77;;;3.77;;
19038;SDS011;9652;49.014;12.052;2023-09-30T07:13:26;7.30;;;3.53;;
19038;SDS011;9652;49.014;12.052;2023-09-30T07:15:53;8.13;;;3.47;;
19038;SDS011;9652;49.014;12.052;2023-09-30T07:18:21;6.97;;;3.10;;
19038;SDS011;9652;49.014;12.052;2023-09-30T07:20:49;7.87;;;3.03;;
19038;SDS011;9652;49.014;12.052;2023-09-30T07:23:17;6.27;;;2.70;;
19038;SDS011;9652;49.014;12.052;2023-09-30T07:25:45;4.97;;;2.73;;
19038;SDS011;9652;49.014;12.052;2023-09-30T07:28:12;3.27;;;1.90;;
19038;SDS011;9652;49.014;12.052;2023-09-30T07:30:39;3.13;;;1.60;;
19038;SDS011;9652;49.014;12.052;2023-09-30T07:33:08;3.83;;;1.50;;
19038;SDS011;9652;49.014;12.052;2023-09-30T07:35:37;2.83;;;1.17;;
19038;SDS011;9652;49.014;12.052;2023-09-30T07:38:05;2.10;;;0.90;;
19038;SDS011;9652;49.014;12.052;2023-09-30T07:40:33;1.10;;;0.80;;
19038;SDS011;9652;49.014;12.052;2023-09-30T07:43:02;1.37;;;0.60;;
19038;SDS011;9652;49.014;12.052;2023-09-30T07:45:30;1.43;;;0.83;;
19038;SDS011;9652;49.014;12.052;2023-09-30T07:47:57;1.23;;;0.70;;
19038;SDS011;9652;49.014;12.052;2023-09-30T07:50:25;0.53;;;0.40;;
19038;SDS011;9652;49.014;12.052;2023-09-30T07:52:53;1.03;;;0.60;;
19038;SDS011;9652;49.014;12.052;2023-09-30T07:55:20;0.77;;;0.50;;
19038;SDS011;9652;49.014;12.052;2023-09-30T07:57:47;0.67;;;0.60;;
19038;SDS011;9652;49.014;12.052;2023-09-30T08:00:15;0.87;;;0.67;;
19038;SDS011;9652;49.014;12.052;2023-09-30T08:02:43;0.77;;;0.60;;
19038;SDS011;9652;49.014;12.052;2023-09-30T08:05:10;0.70;;;0.60;;
19038;SDS011;9652;49.014;12.052;2023-09-30T08:07:38;0.70;;;0.53;;
19038;SDS011;9652;49.014;12.052;2023-09-30T08:10:07;1.20;;;0.80;;
19038;SDS011;9652;49.014;12.052;2023-09-30T08:12:38;0.87;;;0.50;;
19038;SDS011;9652;49.014;12.052;2023-09-30T08:15:06;1.30;;;0.73;;
19038;SDS011;9652;49.014;12.052;2023-09-30T08:17:36;0.97;;;0.60;;
19038;SDS011;9652;49.014;12.052;2023-09-30T08:20:04;1.83;;;0.53;;
19038;SDS011;9652;49.014;12.052;2023-09-30T08:22:33;0.90;;;0.60;;
19038;SDS011;9652;49.014;12.052;2023-09-30T08:25:00;1.27;;;0.70;;
19038;SDS011;9652;49.014;12.052;2023-09-30T08:27:29;0.73;;;0.40;;
19038;SDS011;9652;49.014;12.052;2023-09-30T08:29:57;1.07;;;0.70;;
19038;SDS011;9652;49.014;12.052;2023-09-30T08:32:24;0.47;;;0.40;;
19038;SDS011;9652;49.014;12.052;2023-09-30T08:34:51;1.20;;;0.67;;
19038;SDS011;9652;49.014;12.052;2023-09-30T08:37:19;0.47;;;0.47;;
19038;SDS011;9652;49.014;12.052;2023-09-30T08:39:46;1.00;;;0.40;;
19038;SDS011;9652;49.014;12.052;2023-09-30T08:42:15;0.43;;;0.40;;
19038;SDS011;9652;49.014;12.052;2023-09-30T08:44:46;1.30;;;0.77;;
19038;SDS011;9652;49.014;12.052;2023-09-30T08:47:15;0.97;;;0.50;;
19038;SDS011;9652;49.014;12.052;2023-09-30T08:49:42;0.37;;;0.30;;
19038;SDS011;9652;49.014;12.052;2023-09-30T08:52:13;0.53;;;0.40;;
19038;SDS011;9652;49.014;12.052;2023-09-30T08:54:42;0.77;;;0.50;;
19038;SDS011;9652;49.014;12.052;2023-09-30T08:57:09;0.40;;;0.40;;
19038;SDS011;9652;49.014;12.052;2023-09-30T08:59:36;0.67;;;0.50;;
19038;SDS011;9652;49.014;12.052;2023-09-30T09:02:08;0.37;;;0.30;;
19038;SDS011;9652;49.014;12.052;2023-09-30T09:04:36;0.30;;;0.30;;
19038;SDS011;9652;49.014;12.052;2023-09-30T09:07:04;0.33;;;0.20;;
19038;SDS011;9652;49.014;12.052;2023-09-30T09:09:31;5.03;;;0.30;;
19038;SDS011;9652;49.014;12.052;2023-09-30T09:11:58;0.20;;;0.20;;
19038;SDS011;9652;49.014;12.052;2023-09-30T09:14:36;0.70;;;0.30;;
19038;SDS011;9652;49.014;12.052;2023-09-30T09:17:06;0.30;;;0.30;;
19038;SDS011;9652;49.014;12.052;2023-09-30T09:19:37;0.10;;;0.10;;
19038;SDS011;9652;49.014;12.052;2023-09-30T09:22:04;0.20;;;0.20;;
19038;SDS011;9652;49.014;12.052;2023-09-30T09:24:32;0.10;;;0.10;;
19038;SDS011;9652;49.014;12.052;2023-09-30T09:27:04;0.10;;;0.10;;
19038;SDS011;9652;49.014;12.052;2023-09-30T09:29:33;0.20;;;0.20;;
19038;SDS011;9652;49.014;12.052;2023-09-30T09:32:12;0.57;;;0.17;;
19038;SDS011;9652;49.014;12.052;2023-09-30T09:34:42;0.87;;;0.20;;
19038;SDS011;9652;49.014;12.052;2023-09-30T09:37:14;0.20;;;0.20;;
19038;SDS011;9652;49.014;12.052;2023-09-30T09:39:50;0.50;;;0.40;;
19038;SDS011;9652;49.014;12.052;2023-09-30T09:42:25;0.57;;;0.30;;
19038;SDS011;9652;49.014;12.052;2023-09-30T09:44:55;0.33;;;0.20;;
19038;SDS011;9652;49.014;12.052;2023-09-30T09:47:28;0.53;;;0.30;;
19038;SDS011;9652;49.014;12.052;2023-09-30T09:49:58;0.13;;;0.13;;
19038;SDS011;9652;49.014;12.052;2023-09-30T09:52:28;0.63;;;0.30;;
19038;SDS011;9652;49.014;12.052;2023-09-30T09:54:57;0.30;;;0.30;;
19038;SDS011;9652;49.014;12.052;2023-09-30T09:57:25;0.20;;;0.20;;
19038;SDS011;9652;49.014;12.052;2023-09-30T09:59:56;7.70;;;0.50;;
19038;SDS011;9652;49.014;12.052;2023-09-30T10:02:25;0.20;;;0.20;;
19038;SDS011;9652;49.014;12.052;2023-09-30T10:04:55;0.20;;;0.20;;
19038;SDS011;9652;49.014;12.052;2023-09-30T10:07:24;1.80;;;0.37;;
19038;SDS011;9652;49.014;12.052;2023-09-30T10:09:57;0.53;;;0.30;;
19038;SDS011;9652;49.014;12.052;2023-09-30T10:12:35;0.50;;;0.30;;
19038;SDS011;9652;49.014;12.052;2023-09-30T10:18:06;0.73;;;0.40;;
19038;SDS011;9652;49.014;12.052;2023-09-30T10:20:37;1.13;;;0.43;;
19038;SDS011;9652;49.014;12.052;2023-09-30T10:23:20;0.67;;;0.33;;
19038;SDS011;9652;49.014;12.052;2023-09-30T10:25:48;1.90;;;0.47;;
19038;SDS011;9652;49.014;12.052;2023-09-30T10:28:31;2.67;;;0.63;;
19038;SDS011;9652;49.014;12.052;2023-09-30T10:31:07;0.90;;;0.53;;
19038;SDS011;9652;49.014;12.052;2023-09-30T10:33:45;0.87;;;0.50;;
19038;SDS011;9652;49.014;12.052;2023-09-30T10:36:49;1.80;;;0.80;;
19038;SDS011;9652;49.014;12.052;2023-09-30T10:42:43;2.03;;;1.03;;
19038;SDS011;9652;49.014;12.052;2023-09-30T10:51:13;1.70;;;0.67;;
19038;SDS011;9652;49.014;12.052;2023-09-30T10:53:48;1.20;;;0.70;;
19038;SDS011;9652;49.014;12.052;2023-09-30T10:56:22;2.10;;;1.20;;
19038;SDS011;9652;49.014;12.052;2023-09-30T10:58:52;2.33;;;0.90;;
19038;SDS011;9652;49.014;12.052;2023-09-30T11:01:21;1.53;;;0.93;;
19038;SDS011;9652;49.014;12.052;2023-09-30T11:03:50;1.83;;;1.10;;
19038;SDS011;9652;49.014;12.052;2023-09-30T11:06:28;2.07;;;1.13;;
19038;SDS011;9652;49.014;12.052;2023-09-30T11:08:57;2.60;;;1.27;;
19038;SDS011;9652;49.014;12.052;2023-09-30T11:11:33;1.93;;;1.30;;
19038;SDS011;9652;49.014;12.052;2023-09-30T11:14:02;4.00;;;1.60;;
19038;SDS011;9652;49.014;12.052;2023-09-30T11:16:39;1.50;;;0.90;;
19038;SDS011;9652;49.014;12.052;2023-09-30T11:19:08;3.23;;;1.67;;
19038;SDS011;9652;49.014;12.052;2023-09-30T11:21:36;3.90;;;1.73;;
19038;SDS011;9652;49.014;12.052;2023-09-30T11:24:06;2.63;;;1.40;;
19038;SDS011;9652;49.014;12.052;2023-09-30T11:26:34;2.13;;;1.30;;
19038;SDS011;9652;49.014;12.052;2023-09-30T11:29:04;1.43;;;0.90;;
19038;SDS011;9652;49.014;12.052;2023-09-30T11:31:33;3.23;;;1.60;;
19038;SDS011;9652;49.014;12.052;2023-09-30T11:34:02;2.30;;;1.23;;
19038;SDS011;9652;49.014;12.052;2023-09-30T11:36:33;2.57;;;1.33;;
19038;SDS011;9652;49.014;12.052;2023-09-30T11:39:02;2.67;;;1.60;;
19038;SDS011;9652;49.014;12.052;2023-09-30T11:41:35;3.63;;;1.30;;
19038;SDS011;9652;49.014;12.052;2023-09-30T11:44:05;2.57;;;1.60;;
19038;SDS011;9652;49.014;12.052;2023-09-30T11:46:48;3.37;;;1.67;;
19038;SDS011;9652;49.014;12.052;2023-09-30T11:49:24;3.27;;;1.60;;
19038;SDS011;9652;49.014;12.052;2023-09-30T11:51:54;2.70;;;1.50;;
19038;SDS011;9652;49.014;12.052;2023-09-30T11:54:28;2.53;;;1.40;;
19038;SDS011;9652;49.014;12.052;2023-09-30T11:56:58;3.88;;;1.30;;
19038;SDS011;9652;49.014;12.052;2023-09-30T11:59:27;4.20;;;1.87;;
19038;SDS011;9652;49.014;12.052;2023-09-30T12:01:54;2.43;;;1.50;;
19038;SDS011;9652;49.014;12.052;2023-09-30T12:04:21;3.77;;;1.70;;
19038;SDS011;9652;49.014;12.052;2023-09-30T12:06:49;4.00;;;1.87;;
19038;SDS011;9652;49.014;12.052;2023-09-30T12:09:17;3.60;;;1.90;;
19038;SDS011;9652;49.014;12.052;2023-09-30T12:11:47;2.97;;;1.90;;
19038;SDS011;9652;49.014;12.052;2023-09-30T12:14:16;4.40;;;1.90;;
19038;SDS011;9652;49.014;12.052;2023-09-30T12:16:43;5.22;;;1.92;;
19038;SDS011;9652;49.014;12.052;2023-09-30T12:19:12;3.50;;;1.67;;
19038;SDS011;9652;49.014;12.052;2023-09-30T12:21:41;3.08;;;1.60;;
19038;SDS011;9652;49.014;12.052;2023-09-30T12:24:08;2.83;;;1.57;;
19038;SDS011;9652;49.014;12.052;2023-09-30T12:26:39;3.67;;;1.88;;
19038;SDS011;9652;49.014;12.052;2023-09-30T12:29:06;4.13;;;2.20;;
19038;SDS011;9652;49.014;12.052;2023-09-30T12:31:36;3.10;;;1.77;;
19038;SDS011;9652;49.014;12.052;2023-09-30T12:34:03;3.87;;;1.73;;
19038;SDS011;9652;49.014;12.052;2023-09-30T12:36:30;4.40;;;2.00;;
19038;SDS011;9652;49.014;12.052;2023-09-30T12:38:58;3.20;;;1.83;;
19038;SDS011;9652;49.014;12.052;2023-09-30T12:41:25;3.50;;;1.90;;
19038;SDS011;9652;49.014;12.052;2023-09-30T12:43:52;3.92;;;1.77;;
19038;SDS011;9652;49.014;12.052;2023-09-30T12:46:19;3.50;;;1.90;;
19038;SDS011;9652;49.014;12.052;2023-09-30T12:48:47;2.85;;;1.60;;
19038;SDS011;9652;49.014;12.052;2023-09-30T12:51:14;3.50;;;1.93;;
19038;SDS011;9652;49.014;12.052;2023-09-30T12:53:42;3.92;;;1.80;;
19038;SDS011;9652;49.014;12.052;2023-09-30T12:56:10;3.85;;;1.88;;
19038;SDS011;9652;49.014;12.052;2023-09-30T12:58:37;4.32;;;2.10;;
19038;SDS011;9652;49.014;12.052;2023-09-30T13:01:04;4.00;;;1.77;;
19038;SDS011;9652;49.014;12.052;2023-09-30T13:03:32;4.53;;;1.90;;
19038;SDS011;9652;49.014;12.052;2023-09-30T13:06:02;5.30;;;2.10;;
19038;SDS011;9652;49.014;12.052;2023-09-30T13:08:29;3.38;;;1.85;;
19038;SDS011;9652;49.014;12.052;2023-09-30T13:10:59;4.40;;;2.20;;
19038;SDS011;9652;49.014;12.052;2023-09-30T13:13:27;4.10;;;1.95;;
19038;SDS011;9652;49.014;12.052;2023-09-30T13:15:56;3.50;;;2.47;;
19038;SDS011;9652;49.014;12.052;2023-09-30T13:18:23;4.30;;;2.10;;
19038;SDS011;9652;49.014;12.052;2023-09-30T13:20:50;4.83;;;1.93;;
19038;SDS011;9652;49.014;12.052;2023-09-30T13:23:19;3.97;;;2.33;;
19038;SDS011;9652;49.014;12.052;2023-09-30T13:25:46;5.53;;;2.20;;
19038;SDS011;9652;49.014;12.052;2023-09-30T13:28:13;4.13;;;2.30;;
19038;SDS011;9652;49.014;12.052;2023-09-30T13:30:41;5.82;;;2.15;;
19038;SDS011;9652;49.014;12.052;2023-09-30T13:33:08;3.23;;;1.70;;
19038;SDS011;9652;49.014;12.052;2023-09-30T13:35:35;4.33;;;2.17;;
19038;SDS011;9652;49.014;12.052;2023-09-30T13:38:03;4.10;;;2.13;;
19038;SDS011;9652;49.014;12.052;2023-09-30T13:40:31;5.60;;;2.37;;
19038;SDS011;9652;49.014;12.052;2023-09-30T13:42:58;5.03;;;1.93;;
19038;SDS011;9652;49.014;12.052;2023-09-30T13:45:25;4.00;;;2.20;;
19038;SDS011;9652;49.014;12.052;2023-09-30T13:47:53;5.67;;;2.37;;
19038;SDS011;9652;49.014;12.052;2023-09-30T13:50:21;4.77;;;2.30;;
19038;SDS011;9652;49.014;12.052;2023-09-30T13:52:48;5.27;;;2.00;;
19038;SDS011;9652;49.014;12.052;2023-09-30T13:55:15;3.50;;;1.97;;
19038;SDS011;9652;49.014;12.052;2023-09-30T13:57:45;7.30;;;2.20;;
19038;SDS011;9652;49.014;12.052;2023-09-30T14:00:13;3.53;;;2.20;;
19038;SDS011;9652;49.014;12.052;2023-09-30T14:02:41;6.83;;;2.20;;
19038;SDS011;9652;49.014;12.052;2023-09-30T14:05:09;6.63;;;2.53;;
19038;SDS011;9652;49.014;12.052;2023-09-30T14:07:38;4.93;;;2.50;;
19038;SDS011;9652;49.014;12.052;2023-09-30T14:10:06;5.20;;;2.40;;
19038;SDS011;9652;49.014;12.052;2023-09-30T14:12:35;5.93;;;2.67;;
19038;SDS011;9652;49.014;12.052;2023-09-30T14:15:04;5.67;;;2.33;;
19038;SDS011;9652;49.014;12.052;2023-09-30T14:17:33;4.33;;;2.30;;
19038;SDS011;9652;49.014;12.052;2023-09-30T14:20:01;5.70;;;2.47;;
19038;SDS011;9652;49.014;12.052;2023-09-30T14:22:30;5.90;;;2.63;;
19038;SDS011;9652;49.014;12.052;2023-09-30T14:24:57;6.07;;;2.77;;
19038;SDS011;9652;49.014;12.052;2023-09-30T14:27:24;5.33;;;2.93;;
19038;SDS011;9652;49.014;12.052;2023-09-30T14:29:51;6.00;;;3.20;;
19038;SDS011;9652;49.014;12.052;2023-09-30T14:32:19;6.10;;;2.43;;
19038;SDS011;9652;49.014;12.052;2023-09-30T14:34:48;5.13;;;2.30;;
19038;SDS011;9652;49.014;12.052;2023-09-30T14:37:16;4.70;;;2.27;;
19038;SDS011;9652;49.014;12.052;2023-09-30T14:39:43;5.37;;;2.43;;
19038;SDS011;9652;49.014;12.052;2023-09-30T14:42:10;5.83;;;2.70;;
19038;SDS011;9652;49.014;12.052;2023-09-30T14:44:37;6.87;;;2.53;;
19038;SDS011;9652;49.014;12.052;2023-09-30T14:47:04;3.83;;;1.90;;
19038;SDS011;9652;49.014;12.052;2023-09-30T14:49:33;5.37;;;2.17;;
19038;SDS011;9652;49.014;12.052;2023-09-30T14:52:01;4.00;;;2.20;;
19038;SDS011;9652;49.014;12.052;2023-09-30T14:54:30;6.37;;;2.63;;
19038;SDS011;9652;49.014;12.052;2023-09-30T14:56:57;4.40;;;2.07;;
19038;SDS011;9652;49.014;12.052;2023-09-30T14:59:24;5.03;;;2.73;;
19038;SDS011;9652;49.014;12.052;2023-09-30T15:01:51;6.27;;;2.60;;
19038;SDS011;9652;49.014;12.052;2023-09-30T15:04:19;5.33;;;2.40;;